sensor_id;sensor_type;location;lat;lon;timestamp;temperature;humidity
80695;DHT22;70059;42.702;23.312;2024-03-22T00:01:58;9.80;38.30
80695;DHT22;70059;42.702;23.312;2024-03-22T00:04:25;9.70;38.60
80695;DHT22;70059;42.702;23.312;2024-03-22T00:06:51;9.50;38.60
80695;DHT22;70059;42.702;23.312;2024-03-22T00:09:17;9.50;39.00
80695;DHT22;70059;42.702;23.312;2024-03-22T00:11:43;9.40;39.10
80695;DHT22;70059;42.702;23.312;2024-03-22T00:14:10;9.40;39.50
80695;DHT22;70059;42.702;23.312;2024-03-22T00:16:42;9.30;40.10
80695;DHT22;70059;42.702;23.312;2024-03-22T00:19:08;9.30;40.50
80695;DHT22;70059;42.702;23.312;2024-03-22T00:21:33;9.40;40.30
80695;DHT22;70059;42.702;23.312;2024-03-22T00:23:59;9.40;40.60
80695;DHT22;70059;42.702;23.312;2024-03-22T00:26:26;9.40;41.10
80695;DHT22;70059;42.702;23.312;2024-03-22T00:28:52;9.40;40.60
80695;DHT22;70059;42.702;23.312;2024-03-22T00:31:18;9.20;40.90
80695;DHT22;70059;42.702;23.312;2024-03-22T00:33:44;9.10;41.50
80695;DHT22;70059;42.702;23.312;2024-03-22T00:36:10;9.00;42.00
80695;DHT22;70059;42.702;23.312;2024-03-22T00:38:36;9.00;41.70
80695;DHT22;70059;42.702;23.312;2024-03-22T00:41:01;9.00;41.70
80695;DHT22;70059;42.702;23.312;2024-03-22T00:43:27;8.90;42.40
80695;DHT22;70059;42.702;23.312;2024-03-22T00:46:00;9.00;42.00
80695;DHT22;70059;42.702;23.312;2024-03-22T00:48:26;9.10;41.70
80695;DHT22;70059;42.702;23.312;2024-03-22T00:50:52;9.00;42.10
80695;DHT22;70059;42.702;23.312;2024-03-22T00:53:18;8.90;41.90
80695;DHT22;70059;42.702;23.312;2024-03-22T00:55:43;8.70;42.30
80695;DHT22;70059;42.702;23.312;2024-03-22T00:58:09;8.60;42.80
80695;DHT22;70059;42.702;23.312;2024-03-22T01:00:34;8.60;42.80
80695;DHT22;70059;42.702;23.312;2024-03-22T01:03:02;8.50;43.30
80695;DHT22;70059;42.702;23.312;2024-03-22T01:05:28;8.40;43.30
80695;DHT22;70059;42.702;23.312;2024-03-22T01:07:53;8.20;43.00
80695;DHT22;70059;42.702;23.312;2024-03-22T01:10:19;7.90;44.20
80695;DHT22;70059;42.702;23.312;2024-03-22T01:12:45;7.70;44.80
80695;DHT22;70059;42.702;23.312;2024-03-22T01:15:17;7.70;45.30
80695;DHT22;70059;42.702;23.312;2024-03-22T01:17:42;7.90;45.60
80695;DHT22;70059;42.702;23.312;2024-03-22T01:20:08;8.00;45.00
80695;DHT22;70059;42.702;23.312;2024-03-22T01:22:34;8.00;44.60
80695;DHT22;70059;42.702;23.312;2024-03-22T01:25:00;8.00;44.50
80695;DHT22;70059;42.702;23.312;2024-03-22T01:27:25;8.00;44.50
80695;DHT22;70059;42.702;23.312;2024-03-22T01:29:51;8.10;44.90
80695;DHT22;70059;42.702;23.312;2024-03-22T01:32:16;8.30;44.10
80695;DHT22;70059;42.702;23.312;2024-03-22T01:34:42;8.20;44.10
80695;DHT22;70059;42.702;23.312;2024-03-22T01:37:08;8.10;43.50
80695;DHT22;70059;42.702;23.312;2024-03-22T01:39:33;8.10;44.40
80695;DHT22;70059;42.702;23.312;2024-03-22T01:41:59;8.20;44.80
80695;DHT22;70059;42.702;23.312;2024-03-22T01:44:28;8.30;44.70
80695;DHT22;70059;42.702;23.312;2024-03-22T01:46:54;8.40;43.90
80695;DHT22;70059;42.702;23.312;2024-03-22T01:49:21;8.30;44.20
80695;DHT22;70059;42.702;23.312;2024-03-22T01:51:48;8.30;44.50
80695;DHT22;70059;42.702;23.312;2024-03-22T01:54:16;8.20;43.90
80695;DHT22;70059;42.702;23.312;2024-03-22T01:56:42;8.20;45.20
80695;DHT22;70059;42.702;23.312;2024-03-22T01:59:08;8.30;44.10
80695;DHT22;70059;42.702;23.312;2024-03-22T02:01:34;8.30;43.70
80695;DHT22;70059;42.702;23.312;2024-03-22T02:04:01;8.10;43.80
80695;DHT22;70059;42.702;23.312;2024-03-22T02:06:26;8.00;44.30
80695;DHT22;70059;42.702;23.312;2024-03-22T02:08:52;7.90;44.70
80695;DHT22;70059;42.702;23.312;2024-03-22T02:11:28;7.90;44.70
80695;DHT22;70059;42.702;23.312;2024-03-22T02:13:54;8.00;45.80
80695;DHT22;70059;42.702;23.312;2024-03-22T02:16:19;8.10;44.70
80695;DHT22;70059;42.702;23.312;2024-03-22T02:18:45;8.10;44.70
80695;DHT22;70059;42.702;23.312;2024-03-22T02:21:11;8.10;44.80
80695;DHT22;70059;42.702;23.312;2024-03-22T02:23:38;7.90;45.00
80695;DHT22;70059;42.702;23.312;2024-03-22T02:26:04;7.90;45.30
80695;DHT22;70059;42.702;23.312;2024-03-22T02:28:31;7.90;45.20
80695;DHT22;70059;42.702;23.312;2024-03-22T02:30:58;7.90;45.30
80695;DHT22;70059;42.702;23.312;2024-03-22T02:33:23;8.10;45.30
80695;DHT22;70059;42.702;23.312;2024-03-22T02:35:50;8.00;45.90
80695;DHT22;70059;42.702;23.312;2024-03-22T02:38:16;8.00;45.20
80695;DHT22;70059;42.702;23.312;2024-03-22T02:40:47;7.90;45.60
80695;DHT22;70059;42.702;23.312;2024-03-22T02:43:13;8.00;45.70
80695;DHT22;70059;42.702;23.312;2024-03-22T02:45:39;8.10;45.80
80695;DHT22;70059;42.702;23.312;2024-03-22T02:48:11;8.10;46.10
80695;DHT22;70059;42.702;23.312;2024-03-22T02:50:37;7.80;46.40
80695;DHT22;70059;42.702;23.312;2024-03-22T02:53:04;7.90;46.40
80695;DHT22;70059;42.702;23.312;2024-03-22T02:55:30;7.90;46.50
80695;DHT22;70059;42.702;23.312;2024-03-22T02:57:56;7.90;46.70
80695;DHT22;70059;42.702;23.312;2024-03-22T03:00:29;7.90;46.70
80695;DHT22;70059;42.702;23.312;2024-03-22T03:02:54;7.90;46.90
80695;DHT22;70059;42.702;23.312;2024-03-22T03:05:20;7.80;47.00
80695;DHT22;70059;42.702;23.312;2024-03-22T03:07:46;7.80;47.00
80695;DHT22;70059;42.702;23.312;2024-03-22T03:10:12;7.80;47.20
80695;DHT22;70059;42.702;23.312;2024-03-22T03:12:38;7.80;46.70
80695;DHT22;70059;42.702;23.312;2024-03-22T03:15:04;7.80;47.20
80695;DHT22;70059;42.702;23.312;2024-03-22T03:17:29;7.70;46.80
80695;DHT22;70059;42.702;23.312;2024-03-22T03:19:55;7.70;46.60
80695;DHT22;70059;42.702;23.312;2024-03-22T03:22:21;7.50;46.90
80695;DHT22;70059;42.702;23.312;2024-03-22T03:24:46;7.50;47.30
80695;DHT22;70059;42.702;23.312;2024-03-22T03:27:12;7.50;47.60
80695;DHT22;70059;42.702;23.312;2024-03-22T03:29:38;7.40;47.10
80695;DHT22;70059;42.702;23.312;2024-03-22T03:32:03;7.20;47.70
80695;DHT22;70059;42.702;23.312;2024-03-22T03:34:29;7.10;48.20
80695;DHT22;70059;42.702;23.312;2024-03-22T03:36:55;7.10;48.40
80695;DHT22;70059;42.702;23.312;2024-03-22T03:39:20;7.00;48.30
80695;DHT22;70059;42.702;23.312;2024-03-22T03:41:46;7.00;49.40
80695;DHT22;70059;42.702;23.312;2024-03-22T03:44:12;7.00;49.80
80695;DHT22;70059;42.702;23.312;2024-03-22T03:46:44;6.80;49.60
80695;DHT22;70059;42.702;23.312;2024-03-22T03:49:09;6.80;49.50
80695;DHT22;70059;42.702;23.312;2024-03-22T03:51:35;6.80;49.60
80695;DHT22;70059;42.702;23.312;2024-03-22T03:54:01;6.80;49.50
80695;DHT22;70059;42.702;23.312;2024-03-22T03:56:27;6.70;49.80
80695;DHT22;70059;42.702;23.312;2024-03-22T03:58:52;6.70;49.30
80695;DHT22;70059;42.702;23.312;2024-03-22T04:01:19;6.60;49.70
80695;DHT22;70059;42.702;23.312;2024-03-22T04:03:45;6.40;49.70
80695;DHT22;70059;42.702;23.312;2024-03-22T04:06:10;6.40;49.70
80695;DHT22;70059;42.702;23.312;2024-03-22T04:08:36;6.50;50.00
80695;DHT22;70059;42.702;23.312;2024-03-22T04:11:02;6.60;48.80
80695;DHT22;70059;42.702;23.312;2024-03-22T04:13:28;6.50;49.10
80695;DHT22;70059;42.702;23.312;2024-03-22T04:15:54;6.50;49.40
80695;DHT22;70059;42.702;23.312;2024-03-22T04:18:27;6.50;49.70
80695;DHT22;70059;42.702;23.312;2024-03-22T04:20:57;6.40;49.40
80695;DHT22;70059;42.702;23.312;2024-03-22T04:23:23;6.40;49.20
80695;DHT22;70059;42.702;23.312;2024-03-22T04:25:57;6.30;49.60
80695;DHT22;70059;42.702;23.312;2024-03-22T04:28:24;6.80;48.30
80695;DHT22;70059;42.702;23.312;2024-03-22T04:31:07;6.90;47.60
80695;DHT22;70059;42.702;23.312;2024-03-22T04:33:37;6.70;49.60
80695;DHT22;70059;42.702;23.312;2024-03-22T04:36:03;6.50;49.40
80695;DHT22;70059;42.702;23.312;2024-03-22T04:38:29;6.40;49.80
80695;DHT22;70059;42.702;23.312;2024-03-22T04:40:55;6.30;50.00
80695;DHT22;70059;42.702;23.312;2024-03-22T04:43:22;6.30;50.20
80695;DHT22;70059;42.702;23.312;2024-03-22T04:45:49;6.30;50.40
80695;DHT22;70059;42.702;23.312;2024-03-22T04:48:18;6.20;51.00
80695;DHT22;70059;42.702;23.312;2024-03-22T04:50:50;6.10;50.80
80695;DHT22;70059;42.702;23.312;2024-03-22T04:53:17;6.10;51.00
80695;DHT22;70059;42.702;23.312;2024-03-22T04:55:44;6.10;51.40
80695;DHT22;70059;42.702;23.312;2024-03-22T04:58:20;6.10;51.40
80695;DHT22;70059;42.702;23.312;2024-03-22T05:00:47;6.10;51.00
80695;DHT22;70059;42.702;23.312;2024-03-22T05:03:13;6.20;51.20
80695;DHT22;70059;42.702;23.312;2024-03-22T05:05:40;6.20;51.40
80695;DHT22;70059;42.702;23.312;2024-03-22T05:08:12;6.10;51.30
80695;DHT22;70059;42.702;23.312;2024-03-22T05:10:37;6.30;51.50
80695;DHT22;70059;42.702;23.312;2024-03-22T05:13:03;6.30;50.90
80695;DHT22;70059;42.702;23.312;2024-03-22T05:15:29;6.40;50.70
80695;DHT22;70059;42.702;23.312;2024-03-22T05:17:57;6.40;51.90
80695;DHT22;70059;42.702;23.312;2024-03-22T05:20:23;6.60;50.50
80695;DHT22;70059;42.702;23.312;2024-03-22T05:22:49;6.60;50.10
80695;DHT22;70059;42.702;23.312;2024-03-22T05:25:15;6.70;49.50
80695;DHT22;70059;42.702;23.312;2024-03-22T05:27:41;6.80;49.50
80695;DHT22;70059;42.702;23.312;2024-03-22T05:30:11;6.90;49.30
80695;DHT22;70059;42.702;23.312;2024-03-22T05:32:37;6.90;49.00
80695;DHT22;70059;42.702;23.312;2024-03-22T05:35:04;6.90;49.00
80695;DHT22;70059;42.702;23.312;2024-03-22T05:37:29;6.80;49.10
80695;DHT22;70059;42.702;23.312;2024-03-22T05:39:55;6.90;49.10
80695;DHT22;70059;42.702;23.312;2024-03-22T05:42:21;6.90;48.80
80695;DHT22;70059;42.702;23.312;2024-03-22T05:44:47;7.10;48.40
80695;DHT22;70059;42.702;23.312;2024-03-22T05:47:20;7.10;48.40
80695;DHT22;70059;42.702;23.312;2024-03-22T05:49:46;7.20;48.40
80695;DHT22;70059;42.702;23.312;2024-03-22T05:52:12;7.20;48.30
80695;DHT22;70059;42.702;23.312;2024-03-22T05:54:37;7.30;48.50
80695;DHT22;70059;42.702;23.312;2024-03-22T05:57:03;7.50;47.90
80695;DHT22;70059;42.702;23.312;2024-03-22T05:59:31;7.60;47.20
80695;DHT22;70059;42.702;23.312;2024-03-22T06:01:56;7.70;47.00
80695;DHT22;70059;42.702;23.312;2024-03-22T06:04:22;7.80;46.60
80695;DHT22;70059;42.702;23.312;2024-03-22T06:06:49;7.90;46.30
80695;DHT22;70059;42.702;23.312;2024-03-22T06:09:15;8.00;46.70
80695;DHT22;70059;42.702;23.312;2024-03-22T06:11:55;8.20;45.20
80695;DHT22;70059;42.702;23.312;2024-03-22T06:14:20;8.30;44.70
80695;DHT22;70059;42.702;23.312;2024-03-22T06:16:46;8.50;44.20
80695;DHT22;70059;42.702;23.312;2024-03-22T06:19:12;8.60;43.50
80695;DHT22;70059;42.702;23.312;2024-03-22T06:21:37;8.70;43.20
80695;DHT22;70059;42.702;23.312;2024-03-22T06:24:06;8.80;43.40
80695;DHT22;70059;42.702;23.312;2024-03-22T06:26:32;9.00;43.50
80695;DHT22;70059;42.702;23.312;2024-03-22T06:28:58;9.20;43.10
80695;DHT22;70059;42.702;23.312;2024-03-22T06:31:23;9.40;42.20
80695;DHT22;70059;42.702;23.312;2024-03-22T06:33:49;9.70;40.60
80695;DHT22;70059;42.702;23.312;2024-03-22T06:36:15;9.90;40.40
80695;DHT22;70059;42.702;23.312;2024-03-22T06:38:41;10.10;39.60
80695;DHT22;70059;42.702;23.312;2024-03-22T06:43:42;10.50;38.90
80695;DHT22;70059;42.702;23.312;2024-03-22T06:46:11;10.70;38.30
80695;DHT22;70059;42.702;23.312;2024-03-22T06:48:36;10.90;38.50
80695;DHT22;70059;42.702;23.312;2024-03-22T06:51:02;11.10;37.90
80695;DHT22;70059;42.702;23.312;2024-03-22T06:53:31;11.40;36.50
80695;DHT22;70059;42.702;23.312;2024-03-22T06:55:56;11.70;35.90
80695;DHT22;70059;42.702;23.312;2024-03-22T06:58:22;12.00;35.20
80695;DHT22;70059;42.702;23.312;2024-03-22T07:00:52;12.10;34.90
80695;DHT22;70059;42.702;23.312;2024-03-22T07:03:19;12.30;34.60
80695;DHT22;70059;42.702;23.312;2024-03-22T07:05:56;12.60;34.70
80695;DHT22;70059;42.702;23.312;2024-03-22T07:08:26;13.00;33.40
80695;DHT22;70059;42.702;23.312;2024-03-22T07:11:04;13.30;32.10
80695;DHT22;70059;42.702;23.312;2024-03-22T07:13:30;13.70;31.80
80695;DHT22;70059;42.702;23.312;2024-03-22T07:15:56;14.10;30.90
80695;DHT22;70059;42.702;23.312;2024-03-22T07:18:22;14.60;30.00
80695;DHT22;70059;42.702;23.312;2024-03-22T07:20:48;15.10;29.00
80695;DHT22;70059;42.702;23.312;2024-03-22T07:23:14;15.70;27.90
80695;DHT22;70059;42.702;23.312;2024-03-22T07:25:40;15.90;27.60
80695;DHT22;70059;42.702;23.312;2024-03-22T07:28:08;16.50;26.90
80695;DHT22;70059;42.702;23.312;2024-03-22T07:30:36;17.10;25.80
80695;DHT22;70059;42.702;23.312;2024-03-22T07:33:03;17.50;25.60
80695;DHT22;70059;42.702;23.312;2024-03-22T07:35:29;18.00;25.10
80695;DHT22;70059;42.702;23.312;2024-03-22T07:37:54;18.60;23.80
80695;DHT22;70059;42.702;23.312;2024-03-22T07:40:26;19.00;22.80
80695;DHT22;70059;42.702;23.312;2024-03-22T07:42:54;19.40;22.70
80695;DHT22;70059;42.702;23.312;2024-03-22T07:45:20;20.30;21.70
80695;DHT22;70059;42.702;23.312;2024-03-22T07:47:46;21.00;20.30
80695;DHT22;70059;42.702;23.312;2024-03-22T07:53:19;22.40;18.50
80695;DHT22;70059;42.702;23.312;2024-03-22T07:55:52;23.40;17.70
80695;DHT22;70059;42.702;23.312;2024-03-22T07:58:19;24.20;16.90
80695;DHT22;70059;42.702;23.312;2024-03-22T08:00:54;25.30;15.60
80695;DHT22;70059;42.702;23.312;2024-03-22T08:03:40;26.10;14.70
80695;DHT22;70059;42.702;23.312;2024-03-22T08:06:09;26.20;14.40
80695;DHT22;70059;42.702;23.312;2024-03-22T08:09:03;27.20;13.80
80695;DHT22;70059;42.702;23.312;2024-03-22T08:11:33;27.80;12.60
80695;DHT22;70059;42.702;23.312;2024-03-22T08:13:59;28.60;12.60
80695;DHT22;70059;42.702;23.312;2024-03-22T08:16:29;28.90;12.00
80695;DHT22;70059;42.702;23.312;2024-03-22T08:18:58;29.10;11.80
80695;DHT22;70059;42.702;23.312;2024-03-22T08:21:26;30.00;10.70
80695;DHT22;70059;42.702;23.312;2024-03-22T08:23:52;30.20;10.70
80695;DHT22;70059;42.702;23.312;2024-03-22T08:26:18;30.60;10.60
80695;DHT22;70059;42.702;23.312;2024-03-22T08:28:47;31.40;10.10
80695;DHT22;70059;42.702;23.312;2024-03-22T08:31:13;31.20;9.60
80695;DHT22;70059;42.702;23.312;2024-03-22T08:33:39;31.20;9.80
80695;DHT22;70059;42.702;23.312;2024-03-22T08:36:05;31.70;9.70
80695;DHT22;70059;42.702;23.312;2024-03-22T08:38:31;32.30;9.70
80695;DHT22;70059;42.702;23.312;2024-03-22T08:40:57;32.80;8.70
80695;DHT22;70059;42.702;23.312;2024-03-22T08:43:23;33.50;8.20
80695;DHT22;70059;42.702;23.312;2024-03-22T08:45:52;34.00;8.10
80695;DHT22;70059;42.702;23.312;2024-03-22T08:48:20;34.80;6.80
80695;DHT22;70059;42.702;23.312;2024-03-22T08:50:46;35.20;7.00
80695;DHT22;70059;42.702;23.312;2024-03-22T08:53:12;35.30;6.70
80695;DHT22;70059;42.702;23.312;2024-03-22T08:55:50;35.20;6.70
80695;DHT22;70059;42.702;23.312;2024-03-22T08:58:20;35.60;6.00
80695;DHT22;70059;42.702;23.312;2024-03-22T09:01:17;36.20;6.00
80695;DHT22;70059;42.702;23.312;2024-03-22T09:03:48;36.50;6.20
80695;DHT22;70059;42.702;23.312;2024-03-22T09:06:17;36.40;5.50
80695;DHT22;70059;42.702;23.312;2024-03-22T09:09:12;35.30;5.90
80695;DHT22;70059;42.702;23.312;2024-03-22T09:11:43;36.10;6.00
80695;DHT22;70059;42.702;23.312;2024-03-22T09:14:09;36.40;5.60
80695;DHT22;70059;42.702;23.312;2024-03-22T09:16:35;36.50;5.40
80695;DHT22;70059;42.702;23.312;2024-03-22T09:19:01;37.10;5.50
80695;DHT22;70059;42.702;23.312;2024-03-22T09:21:30;37.80;5.00
80695;DHT22;70059;42.702;23.312;2024-03-22T09:23:58;38.00;4.70
80695;DHT22;70059;42.702;23.312;2024-03-22T09:26:24;38.30;4.20
80695;DHT22;70059;42.702;23.312;2024-03-22T09:28:49;38.50;4.10
80695;DHT22;70059;42.702;23.312;2024-03-22T09:31:26;38.70;4.20
80695;DHT22;70059;42.702;23.312;2024-03-22T09:33:52;39.20;4.00
80695;DHT22;70059;42.702;23.312;2024-03-22T09:36:21;38.90;3.80
80695;DHT22;70059;42.702;23.312;2024-03-22T09:38:50;38.60;4.00
80695;DHT22;70059;42.702;23.312;2024-03-22T09:41:21;38.60;3.90
80695;DHT22;70059;42.702;23.312;2024-03-22T09:43:53;38.80;4.20
80695;DHT22;70059;42.702;23.312;2024-03-22T09:49:51;37.70;4.90
80695;DHT22;70059;42.702;23.312;2024-03-22T09:52:41;38.50;4.30
80695;DHT22;70059;42.702;23.312;2024-03-22T09:55:12;38.70;4.00
80695;DHT22;70059;42.702;23.312;2024-03-22T09:57:39;37.70;4.50
80695;DHT22;70059;42.702;23.312;2024-03-22T10:00:07;37.20;4.70
80695;DHT22;70059;42.702;23.312;2024-03-22T10:02:34;37.50;4.70
80695;DHT22;70059;42.702;23.312;2024-03-22T10:05:02;38.30;4.40
80695;DHT22;70059;42.702;23.312;2024-03-22T10:07:29;38.90;3.90
80695;DHT22;70059;42.702;23.312;2024-03-22T10:10:04;39.70;3.50
80695;DHT22;70059;42.702;23.312;2024-03-22T10:12:51;40.10;3.10
80695;DHT22;70059;42.702;23.312;2024-03-22T10:15:18;40.50;3.20
80695;DHT22;70059;42.702;23.312;2024-03-22T10:17:52;40.80;3.00
80695;DHT22;70059;42.702;23.312;2024-03-22T10:20:33;41.00;3.00
80695;DHT22;70059;42.702;23.312;2024-03-22T10:23:11;40.90;2.80
80695;DHT22;70059;42.702;23.312;2024-03-22T10:25:48;41.00;2.80
80695;DHT22;70059;42.702;23.312;2024-03-22T10:28:20;39.60;3.50
80695;DHT22;70059;42.702;23.312;2024-03-22T10:31:10;40.10;3.70
80695;DHT22;70059;42.702;23.312;2024-03-22T10:33:47;40.50;3.30
80695;DHT22;70059;42.702;23.312;2024-03-22T10:36:19;39.30;3.60
80695;DHT22;70059;42.702;23.312;2024-03-22T10:38:53;40.00;3.40
80695;DHT22;70059;42.702;23.312;2024-03-22T10:41:26;40.40;3.10
80695;DHT22;70059;42.702;23.312;2024-03-22T10:44:29;40.70;3.20
80695;DHT22;70059;42.702;23.312;2024-03-22T10:47:34;40.90;2.90
80695;DHT22;70059;42.702;23.312;2024-03-22T10:50:07;40.00;3.00
80695;DHT22;70059;42.702;23.312;2024-03-22T10:56:00;38.90;3.90
80695;DHT22;70059;42.702;23.312;2024-03-22T10:58:40;39.80;4.10
80695;DHT22;70059;42.702;23.312;2024-03-22T11:01:26;39.80;3.70
80695;DHT22;70059;42.702;23.312;2024-03-22T11:04:03;39.50;3.50
80695;DHT22;70059;42.702;23.312;2024-03-22T11:09:23;39.40;3.40
80695;DHT22;70059;42.702;23.312;2024-03-22T11:11:55;39.40;3.30
80695;DHT22;70059;42.702;23.312;2024-03-22T11:14:28;39.70;4.40
80695;DHT22;70059;42.702;23.312;2024-03-22T11:16:58;39.60;3.90
80695;DHT22;70059;42.702;23.312;2024-03-22T11:19:33;39.70;3.60
80695;DHT22;70059;42.702;23.312;2024-03-22T11:22:14;39.70;3.50
80695;DHT22;70059;42.702;23.312;2024-03-22T11:24:46;39.70;3.30
80695;DHT22;70059;42.702;23.312;2024-03-22T11:27:12;40.00;3.30
80695;DHT22;70059;42.702;23.312;2024-03-22T11:29:38;39.60;3.40
80695;DHT22;70059;42.702;23.312;2024-03-22T11:32:20;39.30;3.80
80695;DHT22;70059;42.702;23.312;2024-03-22T11:34:54;39.00;3.90
80695;DHT22;70059;42.702;23.312;2024-03-22T11:37:19;39.30;3.70
80695;DHT22;70059;42.702;23.312;2024-03-22T11:39:45;39.00;3.80
80695;DHT22;70059;42.702;23.312;2024-03-22T11:42:11;38.70;4.10
80695;DHT22;70059;42.702;23.312;2024-03-22T11:44:39;36.90;4.50
80695;DHT22;70059;42.702;23.312;2024-03-22T11:47:05;37.30;4.50
80695;DHT22;70059;42.702;23.312;2024-03-22T11:49:34;38.00;4.30
80695;DHT22;70059;42.702;23.312;2024-03-22T11:52:00;38.20;4.50
80695;DHT22;70059;42.702;23.312;2024-03-22T11:54:26;38.60;3.60
80695;DHT22;70059;42.702;23.312;2024-03-22T11:56:55;38.00;4.00
80695;DHT22;70059;42.702;23.312;2024-03-22T11:59:21;36.70;5.70
80695;DHT22;70059;42.702;23.312;2024-03-22T12:01:47;35.40;5.80
80695;DHT22;70059;42.702;23.312;2024-03-22T12:04:14;35.70;5.40
80695;DHT22;70059;42.702;23.312;2024-03-22T12:06:44;36.30;5.10
80695;DHT22;70059;42.702;23.312;2024-03-22T12:09:11;37.30;4.80
80695;DHT22;70059;42.702;23.312;2024-03-22T12:11:38;38.20;4.70
80695;DHT22;70059;42.702;23.312;2024-03-22T12:14:04;38.90;3.80
80695;DHT22;70059;42.702;23.312;2024-03-22T12:16:30;39.30;3.60
80695;DHT22;70059;42.702;23.312;2024-03-22T12:18:56;39.20;3.60
80695;DHT22;70059;42.702;23.312;2024-03-22T12:21:21;39.40;3.50
80695;DHT22;70059;42.702;23.312;2024-03-22T12:23:47;39.20;3.60
80695;DHT22;70059;42.702;23.312;2024-03-22T12:26:13;39.30;3.60
80695;DHT22;70059;42.702;23.312;2024-03-22T12:28:39;38.50;3.50
80695;DHT22;70059;42.702;23.312;2024-03-22T12:31:04;36.60;4.40
80695;DHT22;70059;42.702;23.312;2024-03-22T12:33:30;36.40;5.20
80695;DHT22;70059;42.702;23.312;2024-03-22T12:35:56;34.90;5.80
80695;DHT22;70059;42.702;23.312;2024-03-22T12:38:22;33.30;6.30
80695;DHT22;70059;42.702;23.312;2024-03-22T12:40:49;32.40;7.10
80695;DHT22;70059;42.702;23.312;2024-03-22T12:43:15;31.70;7.80
80695;DHT22;70059;42.702;23.312;2024-03-22T12:45:41;31.80;8.10
80695;DHT22;70059;42.702;23.312;2024-03-22T12:48:06;32.30;7.20
80695;DHT22;70059;42.702;23.312;2024-03-22T12:50:32;30.90;7.80
80695;DHT22;70059;42.702;23.312;2024-03-22T12:53:05;30.00;8.70
80695;DHT22;70059;42.702;23.312;2024-03-22T12:55:31;29.30;10.20
80695;DHT22;70059;42.702;23.312;2024-03-22T12:57:57;29.10;9.80
80695;DHT22;70059;42.702;23.312;2024-03-22T13:00:23;28.50;10.30
80695;DHT22;70059;42.702;23.312;2024-03-22T13:02:49;27.50;11.60
80695;DHT22;70059;42.702;23.312;2024-03-22T13:05:14;27.00;12.00
80695;DHT22;70059;42.702;23.312;2024-03-22T13:07:41;27.20;11.60
80695;DHT22;70059;42.702;23.312;2024-03-22T13:10:07;28.00;11.30
80695;DHT22;70059;42.702;23.312;2024-03-22T13:12:33;28.30;10.90
80695;DHT22;70059;42.702;23.312;2024-03-22T13:15:06;28.60;10.70
80695;DHT22;70059;42.702;23.312;2024-03-22T13:17:31;28.80;10.30
80695;DHT22;70059;42.702;23.312;2024-03-22T13:19:57;29.10;10.00
80695;DHT22;70059;42.702;23.312;2024-03-22T13:22:29;28.80;10.00
80695;DHT22;70059;42.702;23.312;2024-03-22T13:24:55;28.80;9.80
80695;DHT22;70059;42.702;23.312;2024-03-22T13:27:21;28.80;10.10
80695;DHT22;70059;42.702;23.312;2024-03-22T13:29:48;28.50;10.40
80695;DHT22;70059;42.702;23.312;2024-03-22T13:32:13;28.10;10.70
80695;DHT22;70059;42.702;23.312;2024-03-22T13:34:39;28.10;10.90
80695;DHT22;70059;42.702;23.312;2024-03-22T13:37:05;28.10;10.60
80695;DHT22;70059;42.702;23.312;2024-03-22T13:39:32;28.00;10.80
80695;DHT22;70059;42.702;23.312;2024-03-22T13:45:01;27.70;10.90
80695;DHT22;70059;42.702;23.312;2024-03-22T13:47:27;27.90;11.40
80695;DHT22;70059;42.702;23.312;2024-03-22T13:50:04;28.30;10.30
80695;DHT22;70059;42.702;23.312;2024-03-22T13:52:32;28.80;10.10
80695;DHT22;70059;42.702;23.312;2024-03-22T13:54:57;29.10;9.60
80695;DHT22;70059;42.702;23.312;2024-03-22T13:57:25;29.20;9.20
80695;DHT22;70059;42.702;23.312;2024-03-22T13:59:51;28.90;9.10
80695;DHT22;70059;42.702;23.312;2024-03-22T14:02:17;28.30;10.10
80695;DHT22;70059;42.702;23.312;2024-03-22T14:04:49;28.30;9.70
80695;DHT22;70059;42.702;23.312;2024-03-22T14:07:15;28.30;10.00
80695;DHT22;70059;42.702;23.312;2024-03-22T14:09:41;28.30;10.70
80695;DHT22;70059;42.702;23.312;2024-03-22T14:12:08;28.50;10.40
80695;DHT22;70059;42.702;23.312;2024-03-22T14:14:34;28.60;10.10
80695;DHT22;70059;42.702;23.312;2024-03-22T14:16:59;28.60;10.70
80695;DHT22;70059;42.702;23.312;2024-03-22T14:19:25;28.50;10.40
80695;DHT22;70059;42.702;23.312;2024-03-22T14:21:51;28.20;10.80
80695;DHT22;70059;42.702;23.312;2024-03-22T14:24:23;28.00;11.00
80695;DHT22;70059;42.702;23.312;2024-03-22T14:26:49;27.60;11.60
80695;DHT22;70059;42.702;23.312;2024-03-22T14:29:15;27.00;11.70
80695;DHT22;70059;42.702;23.312;2024-03-22T14:31:41;26.30;12.20
80695;DHT22;70059;42.702;23.312;2024-03-22T14:34:08;25.70;12.90
80695;DHT22;70059;42.702;23.312;2024-03-22T14:36:34;25.10;12.60
80695;DHT22;70059;42.702;23.312;2024-03-22T14:38:59;24.50;13.50
80695;DHT22;70059;42.702;23.312;2024-03-22T14:41:25;23.90;14.40
80695;DHT22;70059;42.702;23.312;2024-03-22T14:43:51;23.20;15.00
80695;DHT22;70059;42.702;23.312;2024-03-22T14:46:17;22.20;16.10
80695;DHT22;70059;42.702;23.312;2024-03-22T14:48:45;21.40;16.50
80695;DHT22;70059;42.702;23.312;2024-03-22T14:51:11;20.80;17.80
80695;DHT22;70059;42.702;23.312;2024-03-22T14:53:43;20.10;17.90
80695;DHT22;70059;42.702;23.312;2024-03-22T14:56:09;19.40;19.40
80695;DHT22;70059;42.702;23.312;2024-03-22T14:58:35;19.00;19.70
80695;DHT22;70059;42.702;23.312;2024-03-22T15:01:02;18.80;20.00
80695;DHT22;70059;42.702;23.312;2024-03-22T15:03:28;18.60;20.20
80695;DHT22;70059;42.702;23.312;2024-03-22T15:05:55;18.50;20.70
80695;DHT22;70059;42.702;23.312;2024-03-22T15:08:22;18.50;20.40
80695;DHT22;70059;42.702;23.312;2024-03-22T15:10:48;18.50;20.20
80695;DHT22;70059;42.702;23.312;2024-03-22T15:13:15;18.40;20.90
80695;DHT22;70059;42.702;23.312;2024-03-22T15:15:42;18.40;20.40
80695;DHT22;70059;42.702;23.312;2024-03-22T15:18:09;18.20;20.60
80695;DHT22;70059;42.702;23.312;2024-03-22T15:20:35;18.00;20.70
80695;DHT22;70059;42.702;23.312;2024-03-22T15:23:02;17.90;21.00
80695;DHT22;70059;42.702;23.312;2024-03-22T15:25:28;17.80;21.50
80695;DHT22;70059;42.702;23.312;2024-03-22T15:27:54;17.80;22.20
80695;DHT22;70059;42.702;23.312;2024-03-22T15:30:20;17.70;21.80
80695;DHT22;70059;42.702;23.312;2024-03-22T15:32:45;17.60;21.70
80695;DHT22;70059;42.702;23.312;2024-03-22T15:35:11;17.50;21.60
80695;DHT22;70059;42.702;23.312;2024-03-22T15:37:46;17.50;21.80
80695;DHT22;70059;42.702;23.312;2024-03-22T15:40:13;17.50;22.40
80695;DHT22;70059;42.702;23.312;2024-03-22T15:42:39;17.50;22.50
80695;DHT22;70059;42.702;23.312;2024-03-22T15:45:06;17.40;22.90
80695;DHT22;70059;42.702;23.312;2024-03-22T15:47:32;17.40;23.10
80695;DHT22;70059;42.702;23.312;2024-03-22T15:49:58;17.30;23.00
80695;DHT22;70059;42.702;23.312;2024-03-22T15:52:24;17.20;23.70